Time;durP1;ratioP1;P1;durP2;ratioP2;P2;SDS_P1;SDS_P2;PMS_P1;PMS_P2;Temp;Humidity;BMP_temperature;BMP_pressure;BME280_temperature;BME280_humidity;BME280_pressure;Samples;Min_cycle;Max_cycle;Signal;HPM_P1;HPM_P2
2023/06/21 00:01:43;;;;;;;;;2.50;1.25;;;;;;;;5000901;28;45456;-96
2023/06/21 00:04:11;;;;;;;;;3.75;2.00;;;;;;;;4999987;28;45271;-96
2023/06/21 00:06:46;;;;;;;;;3.75;1.75;;;;;;;;4999714;28;48182;-96
2023/06/21 00:09:14;;;;;;;;;3.50;2.00;;;;;;;;5019774;28;45235;-96
2023/06/21 00:11:49;;;;;;;;;1.75;1.75;;;;;;;;5019589;28;45412;-96
2023/06/21 00:18:00;;;;;;;;;3.00;1.75;;;;;;;;4981665;28;45519;-96
2023/06/21 00:20:43;;;;;;;;;;;;;;;;;;;;;
2023/06/21 00:23:11;;;;;;;;;2.00;1.75;;;;;;;;4980539;28;69179;-96
2023/06/21 00:25:37;;;;;;;;;3.25;1.00;;;;;;;;4988127;28;45429;-96
2023/06/21 00:28:38;;;;;;;;;;;;;;;;;;;;;
2023/06/21 00:40:52;;;;;;;;;;;;;;;;;;;;;
2023/06/21 00:43:43;;;;;;;;;;;;;;;;;;;;;
2023/06/21 00:46:39;;;;;;;;;;;;;;;;;;;;;
2023/06/21 00:51:57;;;;;;;;;4.25;1.50;;;;;;;;4834546;29;45515;-96
2023/06/21 00:57:30;;;;;;;;;;;;;;;;;;;;;
2023/06/21 01:00:31;;;;;;;;;2.50;1.50;;;;;;;;4952232;28;71229;-96
2023/06/21 01:40:30;;;;;;;;;2.50;0.50;;;;;;;;4920585;28;45311;-96
2023/06/21 01:48:19;;;;;;;;;3.25;2.00;;;;;;;;4959841;28;45354;-96
2023/06/21 01:50:57;;;;;;;;;;;;;;;;;;;;;
2023/06/21 01:55:50;;;;;;;;;2.00;1.00;;;;;;;;5088569;23;45488;-96
2023/06/21 02:00:43;;;;;;;;;1.00;1.00;;;;;;;;5049848;22;45472;-96
2023/06/21 02:14:39;;;;;;;;;;;;;;;;;;;;;
2023/06/21 02:17:58;;;;;;;;;;;;;;;;;;;;;
2023/06/21 02:20:57;;;;;;;;;1.50;0.25;;;;;;;;4941414;28;44873;-96
2023/06/21 02:23:30;;;;;;;;;5.00;1.25;;;;;;;;4935121;28;45507;-96
2023/06/21 02:26:08;;;;;;;;;2.00;1.00;;;;;;;;4937386;28;44865;-96
2023/06/21 02:29:10;;;;;;;;;;;;;;;;;;;;;
2023/06/21 02:31:38;;;;;;;;;1.00;1.00;;;;;;;;4922037;28;72864;-96
2023/06/21 02:34:30;;;;;;;;;2.00;1.00;;;;;;;;4927705;28;44793;-96
2023/06/21 02:37:01;;;;;;;;;1.00;1.00;;;;;;;;4923127;28;45399;-95
2023/06/21 02:40:09;;;;;;;;;;;;;;;;;;;;;
2023/06/21 02:42:46;;;;;;;;;4.00;1.00;;;;;;;;4923514;28;73368;-96
2023/06/21 02:45:40;;;;;;;;;2.00;2.00;;;;;;;;4927605;28;45577;-96
2023/06/21 02:48:42;;;;;;;;;;;;;;;;;;;;;
2023/06/21 02:51:03;;;;;;;;;2.00;1.00;;;;;;;;4917937;28;46395;-96
2023/06/21 02:54:12;;;;;;;;;;;;;;;;;;;;;
2023/06/21 02:56:55;;;;;;;;;1.25;1.25;;;;;;;;4930437;28;67020;-96
2023/06/21 03:02:40;;;;;;;;;1.50;1.00;;;;;;;;4870885;29;45583;-96
2023/06/21 03:08:39;;;;;;;;;;;;;;;;;;;;;
2023/06/21 03:11:36;;;;;;;;;2.00;1.00;;;;;;;;4856593;29;69591;-96
2023/06/21 03:14:25;;;;;;;;;2.75;1.75;;;;;;;;4859939;29;45556;-96
2023/06/21 03:17:02;;;;;;;;;2.50;1.00;;;;;;;;4856667;29;45583;-96
2023/06/21 03:20:18;;;;;;;;;1.00;1.00;;;;;;;;4864812;29;45511;-96
2023/06/21 03:25:44;;;;;;;;;1.50;1.00;;;;;;;;4865144;29;45623;-96
2023/06/21 03:28:32;;;;;;;;;2.00;1.00;;;;;;;;4872284;29;45421;-96
2023/06/21 03:31:19;;;;;;;;;2.00;2.00;;;;;;;;5331372;22;45762;-96
2023/06/21 03:37:24;;;;;;;;;1.00;1.00;;;;;;;;4927361;28;45554;-96
2023/06/21 03:40:30;;;;;;;;;4.25;2.00;;;;;;;;4928763;28;44913;-96
2023/06/21 03:46:04;;;;;;;;;1.75;1.75;;;;;;;;4894012;29;45447;-95
2023/06/21 03:49:05;;;;;;;;;;;;;;;;;;;;;
2023/06/21 04:06:53;;;;;;;;;;;;;;;;;;;;;
2023/06/21 04:09:18;;;;;;;;;1.50;1.50;;;;;;;;4986807;28;69513;-96
2023/06/21 04:12:00;;;;;;;;;;;;;;;;;;;;;
2023/06/21 04:14:35;;;;;;;;;2.50;2.00;;;;;;;;4982689;28;73247;-96
2023/06/21 04:17:20;;;;;;;;;;;;;;;;;;;;;
2023/06/21 04:19:58;;;;;;;;;1.00;1.00;;;;;;;;4983880;28;68605;-96
2023/06/21 04:26:07;;;;;;;;;2.50;1.00;;;;;;;;4990442;28;45088;-96
2023/06/21 04:29:02;;;;;;;;;;;;;;;;;;;;;
2023/06/21 04:31:42;;;;;;;;;2.00;2.00;;;;;;;;4905560;29;45205;-96
2023/06/21 04:34:59;;;;;;;;;;;;;;;;;;;;;
2023/06/21 04:41:33;;;;;;;;;3.00;2.00;;;;;;;;4820597;29;45039;-96
2023/06/21 04:44:02;;;;;;;;;3.25;1.00;;;;;;;;4812847;29;45498;-96
2023/06/21 04:46:36;;;;;;;;;1.00;1.00;;;;;;;;4794444;29;48396;-96
2023/06/21 04:49:21;;;;;;;;;;;;;;;;;;;;;
2023/06/21 04:55:09;;;;;;;;;;;;;;;;;;;;;
2023/06/21 04:58:15;;;;;;;;;;;;;;;;;;;;;
2023/06/21 05:01:15;;;;;;;;;2.00;1.25;;;;;;;;4801069;29;45346;-96
2023/06/21 05:13:03;;;;;;;;;2.50;0.00;;;;;;;;5282155;22;45893;-96
2023/06/21 05:15:46;;;;;;;;;;;;;;;;;;;;;
2023/06/21 05:18:12;;;;;;;;;5.00;1.25;;;;;;;;4995633;28;70531;-89
2023/06/21 05:20:37;;;;;;;;;2.00;2.00;;;;;;;;4997215;28;45327;-86
2023/06/21 05:23:03;;;;;;;;;3.00;3.00;;;;;;;;4996391;28;45369;-86
2023/06/21 05:25:28;;;;;;;;;5.00;2.75;;;;;;;;4994993;28;45572;-83
2023/06/21 05:27:53;;;;;;;;;3.00;3.00;;;;;;;;4984063;28;45533;-85
2023/06/21 05:30:19;;;;;;;;;4.00;2.67;;;;;;;;4993106;28;48430;-87
2023/06/21 05:32:47;;;;;;;;;3.33;3.00;;;;;;;;4975983;28;45397;-86
2023/06/21 05:35:12;;;;;;;;;5.00;3.25;;;;;;;;4985447;28;45423;-91
2023/06/21 05:37:37;;;;;;;;;3.00;3.00;;;;;;;;4995721;28;45416;-88
2023/06/21 05:40:11;;;;;;;;;5.00;3.33;;;;;;;;4994688;28;46993;-90
2023/06/21 05:42:36;;;;;;;;;5.75;2.00;;;;;;;;4995106;28;45831;-89
2023/06/21 05:45:02;;;;;;;;;3.75;3.00;;;;;;;;4995052;28;45313;-92
2023/06/21 05:47:29;;;;;;;;;3.75;2.00;;;;;;;;4994586;28;45531;-91
2023/06/21 05:49:57;;;;;;;;;5.00;3.00;;;;;;;;4978904;28;47059;-89
2023/06/21 05:52:28;;;;;;;;;3.00;2.00;;;;;;;;4995623;28;45413;-91
2023/06/21 05:54:54;;;;;;;;;4.00;2.75;;;;;;;;4995819;28;45443;-90
2023/06/21 05:57:19;;;;;;;;;4.50;2.75;;;;;;;;4995562;28;45353;-89
2023/06/21 05:59:45;;;;;;;;;2.75;1.25;;;;;;;;4995685;28;45436;-90
2023/06/21 06:02:10;;;;;;;;;2.75;2.50;;;;;;;;4995807;28;45420;-87
2023/06/21 06:04:39;;;;;;;;;4.00;3.00;;;;;;;;4995723;28;45434;-87
2023/06/21 06:07:04;;;;;;;;;2.25;2.25;;;;;;;;4984142;28;45441;-86
2023/06/21 06:10:01;;;;;;;;;2.75;2.75;;;;;;;;4975551;28;46118;-86
2023/06/21 06:12:33;;;;;;;;;4.00;3.00;;;;;;;;4979211;28;46163;-88
2023/06/21 06:18:04;;;;;;;;;4.00;3.25;;;;;;;;4995041;28;45435;-89
2023/06/21 06:20:29;;;;;;;;;3.50;3.00;;;;;;;;4993765;28;45713;-89
2023/06/21 06:22:54;;;;;;;;;6.67;4.00;;;;;;;;4989783;28;45790;-90
2023/06/21 06:25:19;;;;;;;;;6.00;3.67;;;;;;;;4982236;28;45432;-86
2023/06/21 06:27:45;;;;;;;;;3.67;2.33;;;;;;;;4992642;28;45464;-85
2023/06/21 06:30:11;;;;;;;;;6.75;3.00;;;;;;;;4991691;28;46317;-88
2023/06/21 06:32:36;;;;;;;;;3.75;3.00;;;;;;;;4996140;28;45857;-86
2023/06/21 06:35:03;;;;;;;;;3.00;2.00;;;;;;;;4997329;28;45389;-89
2023/06/21 06:37:29;;;;;;;;;3.00;3.00;;;;;;;;4993291;28;45769;-88
2023/06/21 06:39:54;;;;;;;;;3.67;3.00;;;;;;;;4981211;28;46586;-87
2023/06/21 06:42:19;;;;;;;;;3.00;3.00;;;;;;;;4990874;28;45551;-87
2023/06/21 06:44:45;;;;;;;;;4.75;2.75;;;;;;;;4994841;28;45428;-87
2023/06/21 06:47:11;;;;;;;;;3.50;3.50;;;;;;;;4982146;28;45653;-86
2023/06/21 06:49:36;;;;;;;;;4.00;3.00;;;;;;;;4990036;28;46881;-88
2023/06/21 06:52:01;;;;;;;;;2.00;2.00;;;;;;;;4988029;28;45763;-89
2023/06/21 06:54:26;;;;;;;;;3.00;3.00;;;;;;;;4996503;28;45739;-88
2023/06/21 06:56:54;;;;;;;;;2.33;2.33;;;;;;;;4996082;28;45540;-87
2023/06/21 06:59:19;;;;;;;;;23.50;15.50;;;;;;;;4991742;28;46377;-86
2023/06/21 07:01:44;;;;;;;;;6.00;5.00;;;;;;;;4988950;28;45376;-91
2023/06/21 07:04:12;;;;;;;;;4.00;2.00;;;;;;;;4991621;28;45392;-89
2023/06/21 07:06:42;;;;;;;;;2.00;2.00;;;;;;;;4992615;28;45825;-89
2023/06/21 07:09:10;;;;;;;;;2.00;1.00;;;;;;;;4990566;28;46385;-89
2023/06/21 07:11:35;;;;;;;;;3.50;1.75;;;;;;;;4995330;28;45444;-87
2023/06/21 07:14:01;;;;;;;;;1.75;1.25;;;;;;;;4995790;28;45410;-87
2023/06/21 07:16:29;;;;;;;;;2.75;0.50;;;;;;;;4995489;28;45208;-86
2023/06/21 07:19:02;;;;;;;;;2.00;2.00;;;;;;;;4995844;28;46614;-88
2023/06/21 07:21:27;;;;;;;;;2.50;0.75;;;;;;;;4988827;28;45961;-88
2023/06/21 07:23:53;;;;;;;;;1.67;0.67;;;;;;;;4991823;28;45354;-88
2023/06/21 07:26:21;;;;;;;;;1.50;1.00;;;;;;;;4992443;28;45576;-90
2023/06/21 07:28:46;;;;;;;;;2.25;1.75;;;;;;;;4986311;28;48097;-90
2023/06/21 07:31:11;;;;;;;;;0.75;0.75;;;;;;;;4982904;28;45552;-90
2023/06/21 07:33:37;;;;;;;;;1.00;0.75;;;;;;;;4988262;28;45755;-91
2023/06/21 07:36:03;;;;;;;;;2.50;1.00;;;;;;;;4988869;28;45426;-90
2023/06/21 07:38:28;;;;;;;;;3.75;2.25;;;;;;;;4986263;28;48220;-91
2023/06/21 07:40:53;;;;;;;;;1.50;1.50;;;;;;;;4990088;28;45464;-91
2023/06/21 07:43:19;;;;;;;;;1.00;1.00;;;;;;;;4996394;28;45366;-91
2023/06/21 07:45:44;;;;;;;;;3.00;2.00;;;;;;;;4985137;28;45343;-90
2023/06/21 07:48:10;;;;;;;;;0.00;0.00;;;;;;;;4991774;28;45773;-90
2023/06/21 07:50:35;;;;;;;;;1.00;1.00;;;;;;;;4992739;28;45642;-88
2023/06/21 07:53:01;;;;;;;;;1.75;1.00;;;;;;;;4988722;28;45480;-88
2023/06/21 07:55:26;;;;;;;;;0.67;0.33;;;;;;;;4991345;28;45436;-88
2023/06/21 07:57:54;;;;;;;;;2.75;1.50;;;;;;;;4990659;28;46845;-89
2023/06/21 08:00:23;;;;;;;;;1.00;1.00;;;;;;;;4987981;28;45403;-89
2023/06/21 08:02:49;;;;;;;;;0.75;0.75;;;;;;;;4989143;28;45432;-87
2023/06/21 08:05:15;;;;;;;;;1.00;1.00;;;;;;;;4992533;28;46493;-86
2023/06/21 08:07:40;;;;;;;;;0.25;0.00;;;;;;;;4985855;28;47062;-87
2023/06/21 08:10:05;;;;;;;;;1.67;1.00;;;;;;;;5175803;23;45488;-88
2023/06/21 08:12:31;;;;;;;;;1.00;1.00;;;;;;;;4988460;28;46254;-88
2023/06/21 08:14:56;;;;;;;;;2.00;2.00;;;;;;;;4990314;28;45873;-87
2023/06/21 08:17:21;;;;;;;;;1.33;1.00;;;;;;;;4986536;28;46082;-87
2023/06/21 08:19:46;;;;;;;;;1.00;1.00;;;;;;;;4993847;28;45386;-89
2023/06/21 08:22:12;;;;;;;;;1.00;1.00;;;;;;;;4985785;28;45341;-89
2023/06/21 08:24:37;;;;;;;;;0.00;0.00;;;;;;;;4991412;28;46567;-89
2023/06/21 08:27:02;;;;;;;;;4.00;3.00;;;;;;;;4986904;28;47015;-84
2023/06/21 08:29:27;;;;;;;;;26.50;20.25;;;;;;;;4983475;28;45453;-82
2023/06/21 08:31:53;;;;;;;;;2.33;1.33;;;;;;;;4993424;28;45413;-87
2023/06/21 08:34:23;;;;;;;;;3.00;1.00;;;;;;;;4987380;28;45468;-88
2023/06/21 08:39:56;;;;;;;;;1.00;1.00;;;;;;;;4985078;28;45459;-89
2023/06/21 08:42:33;;;;;;;;;;;;;;;;;;;;;
2023/06/21 08:45:03;;;;;;;;;2.00;2.00;;;;;;;;4991931;28;69053;-94
2023/06/21 08:47:32;;;;;;;;;1.00;1.00;;;;;;;;4983247;28;48070;-88
2023/06/21 08:49:58;;;;;;;;;3.00;2.00;;;;;;;;4993903;28;45357;-90
2023/06/21 08:52:24;;;;;;;;;3.00;1.00;;;;;;;;4988849;28;45412;-88
2023/06/21 08:54:55;;;;;;;;;1.75;1.25;;;;;;;;4993876;28;45556;-85
2023/06/21 08:57:52;;;;;;;;;3.00;1.75;;;;;;;;4994475;28;46697;-89
2023/06/21 09:00:22;;;;;;;;;2.50;1.00;;;;;;;;4988723;28;45458;-85
2023/06/21 09:03:03;;;;;;;;;1.00;1.00;;;;;;;;4986891;28;45667;-85
2023/06/21 09:05:37;;;;;;;;;2.25;1.25;;;;;;;;4987087;28;45362;-86
2023/06/21 09:08:04;;;;;;;;;4.00;1.00;;;;;;;;4987563;28;45479;-90
2023/06/21 09:10:30;;;;;;;;;2.75;1.00;;;;;;;;4984681;28;45326;-93
2023/06/21 09:12:58;;;;;;;;;3.00;2.00;;;;;;;;4993680;28;45297;-91
2023/06/21 09:15:24;;;;;;;;;2.00;1.00;;;;;;;;4987392;28;45402;-90
2023/06/21 09:17:50;;;;;;;;;2.00;0.50;;;;;;;;4990597;28;45329;-91
2023/06/21 09:20:16;;;;;;;;;1.33;1.00;;;;;;;;4989770;28;45429;-89
2023/06/21 09:22:43;;;;;;;;;2.25;1.75;;;;;;;;4978623;28;45562;-90
2023/06/21 09:25:08;;;;;;;;;2.00;2.00;;;;;;;;4994011;28;45398;-90
2023/06/21 09:27:34;;;;;;;;;1.75;1.75;;;;;;;;4983921;28;47171;-89
2023/06/21 09:29:59;;;;;;;;;2.00;0.75;;;;;;;;4985046;28;45338;-89
2023/06/21 09:32:24;;;;;;;;;2.00;2.00;;;;;;;;4988654;28;45482;-88
2023/06/21 09:34:50;;;;;;;;;1.00;1.00;;;;;;;;4987036;28;45647;-88
2023/06/21 09:37:44;;;;;;;;;2.00;0.75;;;;;;;;4989171;28;46279;-88
2023/06/21 09:40:09;;;;;;;;;2.75;1.75;;;;;;;;4982469;28;45555;-89
2023/06/21 09:42:36;;;;;;;;;1.50;1.25;;;;;;;;4989051;28;45325;-89
2023/06/21 09:45:01;;;;;;;;;1.00;1.00;;;;;;;;4994496;28;45599;-89
2023/06/21 09:47:30;;;;;;;;;3.00;1.00;;;;;;;;4985851;28;45468;-88
2023/06/21 09:49:56;;;;;;;;;2.50;1.75;;;;;;;;4986521;28;45286;-90
2023/06/21 09:52:22;;;;;;;;;1.50;1.00;;;;;;;;4980692;28;45432;-89
2023/06/21 09:54:47;;;;;;;;;0.75;0.75;;;;;;;;4985638;28;45227;-89
2023/06/21 09:57:13;;;;;;;;;2.00;1.33;;;;;;;;4993016;28;46314;-88
2023/06/21 09:59:39;;;;;;;;;2.50;1.25;;;;;;;;4984981;28;45750;-89
2023/06/21 10:02:04;;;;;;;;;2.00;2.00;;;;;;;;4994859;28;45472;-90
2023/06/21 10:04:37;;;;;;;;;1.00;1.00;;;;;;;;4988642;28;45426;-88
2023/06/21 10:07:03;;;;;;;;;1.75;1.00;;;;;;;;4991119;28;47083;-88
2023/06/21 10:09:34;;;;;;;;;2.00;2.00;;;;;;;;4987854;28;45922;-89
2023/06/21 10:11:59;;;;;;;;;1.00;1.00;;;;;;;;4994089;28;45404;-90
2023/06/21 10:14:26;;;;;;;;;2.00;2.00;;;;;;;;4993303;28;45615;-89
2023/06/21 10:16:53;;;;;;;;;2.00;1.00;;;;;;;;4996091;28;46267;-93
2023/06/21 10:19:20;;;;;;;;;1.25;1.25;;;;;;;;4996158;28;45475;-89
2023/06/21 10:21:46;;;;;;;;;3.00;2.00;;;;;;;;4993568;28;45478;-91
2023/06/21 10:24:13;;;;;;;;;3.50;0.25;;;;;;;;4987913;28;45623;-90
2023/06/21 10:26:38;;;;;;;;;2.50;1.00;;;;;;;;4985314;28;47384;-88
2023/06/21 10:29:04;;;;;;;;;2.50;1.25;;;;;;;;4987255;28;45382;-90
2023/06/21 10:31:30;;;;;;;;;1.00;1.00;;;;;;;;4990741;28;45448;-91
2023/06/21 10:33:56;;;;;;;;;3.75;1.75;;;;;;;;4988972;28;45282;-89
2023/06/21 10:36:24;;;;;;;;;0.00;0.00;;;;;;;;4986713;28;46266;-90
2023/06/21 10:38:50;;;;;;;;;0.75;0.75;;;;;;;;4989538;28;45216;-90
2023/06/21 10:41:16;;;;;;;;;0.75;0.25;;;;;;;;4990343;28;45524;-91
2023/06/21 10:43:42;;;;;;;;;0.25;0.25;;;;;;;;4991414;28;45574;-91
2023/06/21 10:46:08;;;;;;;;;0.25;0.25;;;;;;;;4991089;28;45396;-88
2023/06/21 10:48:34;;;;;;;;;3.75;1.50;;;;;;;;4986339;28;45429;-93
2023/06/21 10:51:02;;;;;;;;;1.25;1.25;;;;;;;;4999600;28;45430;-89
2023/06/21 10:53:34;;;;;;;;;0.50;0.25;;;;;;;;5007466;28;44869;-94
2023/06/21 10:56:00;;;;;;;;;0.25;0.25;;;;;;;;4989267;28;45381;-88
2023/06/21 10:58:26;;;;;;;;;0.25;0.25;;;;;;;;4991563;28;45420;-90
2023/06/21 11:00:53;;;;;;;;;1.00;0.25;;;;;;;;4986799;28;45369;-94
2023/06/21 11:03:25;;;;;;;;;0.50;0.25;;;;;;;;4987882;28;45484;-90
2023/06/21 11:05:55;;;;;;;;;0.50;0.50;;;;;;;;4992167;28;45298;-92
2023/06/21 11:08:31;;;;;;;;;2.25;0.50;;;;;;;;4993140;28;46244;-87
2023/06/21 11:10:56;;;;;;;;;0.25;0.00;;;;;;;;4996496;28;45468;-91
2023/06/21 11:13:35;;;;;;;;;0.00;0.00;;;;;;;;4986295;28;45346;-92
2023/06/21 11:16:13;;;;;;;;;0.75;0.50;;;;;;;;4993377;28;47107;-90
2023/06/21 11:18:39;;;;;;;;;0.00;0.00;;;;;;;;4981805;28;45540;-88
2023/06/21 11:21:04;;;;;;;;;0.50;0.50;;;;;;;;4992851;28;45464;-87
2023/06/21 11:23:30;;;;;;;;;0.25;0.25;;;;;;;;4992709;28;45473;-87
2023/06/21 11:26:01;;;;;;;;;1.00;1.00;;;;;;;;4987507;28;45479;-88
2023/06/21 11:28:30;;;;;;;;;1.75;0.00;;;;;;;;4989731;28;45786;-87
2023/06/21 11:30:59;;;;;;;;;1.25;1.00;;;;;;;;4986939;28;45442;-90
2023/06/21 11:33:29;;;;;;;;;0.00;0.00;;;;;;;;4982666;28;45442;-90
2023/06/21 11:36:01;;;;;;;;;6.00;0.25;;;;;;;;4986788;28;47152;-90
2023/06/21 11:38:26;;;;;;;;;2.00;0.00;;;;;;;;4981394;28;45791;-86
2023/06/21 11:40:51;;;;;;;;;0.33;0.33;;;;;;;;4993738;28;45524;-86
2023/06/21 11:43:20;;;;;;;;;1.00;1.00;;;;;;;;4984475;28;45350;-90
2023/06/21 11:45:54;;;;;;;;;1.75;1.75;;;;;;;;4988884;28;45482;-86
2023/06/21 11:48:23;;;;;;;;;2.75;1.00;;;;;;;;4987018;28;45765;-85
2023/06/21 11:50:50;;;;;;;;;5.25;5.00;;;;;;;;4990331;28;45475;-84
2023/06/21 11:53:21;;;;;;;;;1.75;1.25;;;;;;;;4988793;28;45599;-82
2023/06/21 11:55:56;;;;;;;;;3.25;1.00;;;;;;;;4988509;28;46120;-82
2023/06/21 11:58:22;;;;;;;;;2.00;0.25;;;;;;;;4987175;28;45825;-86
2023/06/21 12:00:48;;;;;;;;;1.25;0.00;;;;;;;;4984746;28;45555;-85
2023/06/21 12:03:14;;;;;;;;;1.25;0.00;;;;;;;;4983574;28;45429;-87
2023/06/21 12:05:50;;;;;;;;;1.00;0.00;;;;;;;;4993436;28;46827;-85
2023/06/21 12:08:15;;;;;;;;;0.75;0.00;;;;;;;;4986586;28;46167;-87
2023/06/21 12:10:41;;;;;;;;;0.25;0.00;;;;;;;;4983265;28;45645;-85
2023/06/21 12:13:06;;;;;;;;;0.00;0.00;;;;;;;;4984547;28;45464;-86
2023/06/21 12:15:32;;;;;;;;;0.67;0.67;;;;;;;;4984135;28;45487;-86
2023/06/21 12:17:57;;;;;;;;;0.00;0.00;;;;;;;;4991127;28;45432;-86
2023/06/21 12:20:22;;;;;;;;;0.00;0.00;;;;;;;;4987768;28;45532;-86
2023/06/21 12:22:48;;;;;;;;;0.00;0.00;;;;;;;;4991998;28;45462;-85
2023/06/21 12:25:13;;;;;;;;;1.25;0.00;;;;;;;;4991153;28;47416;-86
2023/06/21 12:27:50;;;;;;;;;3.00;1.00;;;;;;;;4981666;28;45509;-85
2023/06/21 12:30:15;;;;;;;;;2.00;0.75;;;;;;;;4988614;28;45375;-86
2023/06/21 12:32:42;;;;;;;;;1.00;0.00;;;;;;;;4989478;28;45674;-86
2023/06/21 12:35:08;;;;;;;;;2.00;0.00;;;;;;;;4987855;28;46141;-84
2023/06/21 12:37:33;;;;;;;;;0.00;0.00;;;;;;;;4992287;28;45297;-82
2023/06/21 12:40:00;;;;;;;;;0.67;0.00;;;;;;;;4988618;28;45283;-86
2023/06/21 12:42:28;;;;;;;;;1.75;0.25;;;;;;;;4987144;28;45856;-86
2023/06/21 12:44:56;;;;;;;;;1.50;1.00;;;;;;;;4986158;28;46303;-86
2023/06/21 12:47:23;;;;;;;;;1.75;1.00;;;;;;;;4984515;28;45446;-85
2023/06/21 12:49:48;;;;;;;;;1.00;1.00;;;;;;;;4985964;28;45552;-85
2023/06/21 12:52:14;;;;;;;;;1.75;0.00;;;;;;;;4994236;28;45420;-85
2023/06/21 12:54:51;;;;;;;;;0.33;0.00;;;;;;;;4985542;28;47274;-85
2023/06/21 12:57:16;;;;;;;;;2.25;0.75;;;;;;;;4989398;28;46412;-85
2023/06/21 12:59:42;;;;;;;;;0.33;0.00;;;;;;;;4993659;28;45322;-86
2023/06/21 13:02:07;;;;;;;;;1.00;0.33;;;;;;;;4993548;28;45443;-85
2023/06/21 13:04:33;;;;;;;;;0.00;0.00;;;;;;;;4989575;28;45378;-86
2023/06/21 13:06:58;;;;;;;;;0.00;0.00;;;;;;;;4988903;28;45295;-85
2023/06/21 13:09:24;;;;;;;;;0.00;0.00;;;;;;;;4986533;28;45644;-85
2023/06/21 13:11:49;;;;;;;;;1.25;0.00;;;;;;;;4991883;28;45541;-85
2023/06/21 13:14:15;;;;;;;;;1.00;0.00;;;;;;;;4989446;28;46213;-85
2023/06/21 13:16:40;;;;;;;;;1.00;1.00;;;;;;;;4993202;28;45430;-83
2023/06/21 13:19:07;;;;;;;;;0.00;0.00;;;;;;;;4986876;28;45475;-87
2023/06/21 13:21:33;;;;;;;;;0.00;0.00;;;;;;;;4987708;28;45723;-86
2023/06/21 13:24:00;;;;;;;;;1.25;0.00;;;;;;;;4989287;28;45799;-85
2023/06/21 13:26:25;;;;;;;;;2.00;0.00;;;;;;;;4983409;28;46029;-85
2023/06/21 13:28:50;;;;;;;;;2.50;1.00;;;;;;;;4984235;28;45656;-85
2023/06/21 13:31:17;;;;;;;;;1.33;0.00;;;;;;;;4992237;28;45460;-84
2023/06/21 13:33:47;;;;;;;;;1.50;0.50;;;;;;;;4987034;28;46384;-84
2023/06/21 13:36:14;;;;;;;;;2.75;0.00;;;;;;;;4984741;28;45461;-86
2023/06/21 13:38:39;;;;;;;;;0.75;0.50;;;;;;;;4985373;28;45524;-85
2023/06/21 13:41:06;;;;;;;;;1.00;0.00;;;;;;;;4987683;28;45516;-85
2023/06/21 13:43:32;;;;;;;;;0.00;0.00;;;;;;;;4993139;28;46491;-85
2023/06/21 13:45:57;;;;;;;;;0.00;0.00;;;;;;;;4990992;28;45395;-83
2023/06/21 13:48:22;;;;;;;;;0.00;0.00;;;;;;;;4986305;28;45346;-84
2023/06/21 13:50:49;;;;;;;;;0.00;0.00;;;;;;;;4987738;28;45423;-84
2023/06/21 13:53:14;;;;;;;;;1.00;1.00;;;;;;;;4984443;28;46535;-85
2023/06/21 13:55:40;;;;;;;;;1.00;1.00;;;;;;;;4985024;28;45504;-83
2023/06/21 13:58:05;;;;;;;;;0.00;0.00;;;;;;;;4975761;28;45400;-84
2023/06/21 14:00:30;;;;;;;;;0.00;0.00;;;;;;;;4986907;28;45451;-84
2023/06/21 14:02:56;;;;;;;;;3.00;0.50;;;;;;;;4984254;28;47152;-85
2023/06/21 14:05:22;;;;;;;;;0.75;0.75;;;;;;;;4986889;28;45399;-86
2023/06/21 14:07:47;;;;;;;;;3.00;1.00;;;;;;;;4990283;28;45559;-85
2023/06/21 14:10:13;;;;;;;;;3.00;1.00;;;;;;;;4988320;28;45439;-85
2023/06/21 14:12:41;;;;;;;;;3.25;0.75;;;;;;;;4979166;28;45845;-84
2023/06/21 14:15:08;;;;;;;;;1.00;1.00;;;;;;;;4991658;28;46423;-84
2023/06/21 14:17:33;;;;;;;;;2.00;1.00;;;;;;;;4987535;28;45637;-85
2023/06/21 14:20:04;;;;;;;;;0.25;0.25;;;;;;;;4991285;28;45600;-85
2023/06/21 14:22:30;;;;;;;;;1.25;0.00;;;;;;;;4983859;28;47092;-83
2023/06/21 14:24:58;;;;;;;;;0.25;0.00;;;;;;;;4992448;28;45534;-83
2023/06/21 14:27:26;;;;;;;;;1.00;1.00;;;;;;;;4983758;28;45567;-84
2023/06/21 14:29:54;;;;;;;;;0.00;0.00;;;;;;;;4987143;28;45532;-85
2023/06/21 14:32:20;;;;;;;;;0.00;0.00;;;;;;;;4983293;28;46612;-89
2023/06/21 14:34:45;;;;;;;;;2.00;0.00;;;;;;;;4988896;28;45491;-89
2023/06/21 14:40:03;;;;;;;;;1.00;0.00;;;;;;;;4947098;28;45749;-87
2023/06/21 14:42:28;;;;;;;;;3.25;1.00;;;;;;;;4945138;28;46136;-88
2023/06/21 14:44:54;;;;;;;;;0.75;0.50;;;;;;;;4942688;28;45516;-87
2023/06/21 14:47:19;;;;;;;;;2.00;1.00;;;;;;;;4944345;28;45422;-89
2023/06/21 14:49:46;;;;;;;;;2.50;0.50;;;;;;;;4943288;28;45567;-86
2023/06/21 14:52:12;;;;;;;;;2.00;0.75;;;;;;;;4951418;28;46195;-87
2023/06/21 14:54:38;;;;;;;;;1.00;1.00;;;;;;;;4954460;28;45474;-88
2023/06/21 14:57:19;;;;;;;;;1.25;1.00;;;;;;;;4953187;28;45365;-91
2023/06/21 14:59:49;;;;;;;;;2.50;0.00;;;;;;;;4943139;28;46952;-91
2023/06/21 15:02:14;;;;;;;;;2.00;0.50;;;;;;;;4949277;28;46433;-91
2023/06/21 15:04:40;;;;;;;;;0.50;0.00;;;;;;;;4942061;28;45398;-88
2023/06/21 15:07:07;;;;;;;;;1.75;1.00;;;;;;;;4944605;28;45386;-89
2023/06/21 15:09:32;;;;;;;;;3.75;1.00;;;;;;;;4943684;28;45555;-88
2023/06/21 15:11:57;;;;;;;;;3.33;1.67;;;;;;;;4953180;28;45502;-88
2023/06/21 15:14:22;;;;;;;;;2.00;1.33;;;;;;;;4948616;28;45451;-85
2023/06/21 15:16:49;;;;;;;;;3.67;1.00;;;;;;;;4964631;28;45679;-86
2023/06/21 15:19:14;;;;;;;;;1.75;1.50;;;;;;;;4992249;28;45550;-87
2023/06/21 15:21:40;;;;;;;;;1.00;1.00;;;;;;;;4992033;28;45489;-88
2023/06/21 15:24:05;;;;;;;;;1.00;1.00;;;;;;;;4991190;28;45558;-84
2023/06/21 15:26:34;;;;;;;;;2.75;1.75;;;;;;;;4992353;28;45432;-90
2023/06/21 15:28:59;;;;;;;;;2.00;1.00;;;;;;;;4989754;28;45457;-85
2023/06/21 15:31:24;;;;;;;;;3.75;1.00;;;;;;;;4991089;28;45463;-89
2023/06/21 15:33:49;;;;;;;;;2.00;1.00;;;;;;;;4991227;28;45892;-88
2023/06/21 15:36:23;;;;;;;;;2.00;1.00;;;;;;;;4986564;28;45466;-87
2023/06/21 15:38:48;;;;;;;;;2.25;2.00;;;;;;;;4984029;28;45409;-88
2023/06/21 15:41:13;;;;;;;;;0.50;0.50;;;;;;;;4991239;28;45789;-86
2023/06/21 15:43:38;;;;;;;;;2.00;1.00;;;;;;;;4989877;28;45473;-88
2023/06/21 15:46:04;;;;;;;;;1.00;1.00;;;;;;;;4989596;28;45763;-89
2023/06/21 15:48:32;;;;;;;;;6.00;2.00;;;;;;;;4991488;28;45467;-88
2023/06/21 15:50:57;;;;;;;;;3.50;2.00;;;;;;;;4988457;28;47139;-87
2023/06/21 15:53:22;;;;;;;;;2.33;2.00;;;;;;;;4992662;28;45986;-87
2023/06/21 15:55:47;;;;;;;;;2.33;1.33;;;;;;;;4989754;28;45495;-88
2023/06/21 15:58:12;;;;;;;;;2.67;2.00;;;;;;;;4982893;28;45539;-82
2023/06/21 16:00:39;;;;;;;;;1.00;1.00;;;;;;;;4988041;28;47093;-86
2023/06/21 16:03:05;;;;;;;;;3.50;2.50;;;;;;;;4988631;28;45455;-86
2023/06/21 16:05:30;;;;;;;;;2.00;1.00;;;;;;;;4987112;28;45378;-86
2023/06/21 16:07:55;;;;;;;;;2.67;2.00;;;;;;;;4982893;28;46743;-87
2023/06/21 16:10:20;;;;;;;;;1.00;1.00;;;;;;;;4981391;28;47088;-89
2023/06/21 16:12:45;;;;;;;;;4.00;1.67;;;;;;;;4985380;28;45522;-88
2023/06/21 16:15:11;;;;;;;;;2.00;1.00;;;;;;;;4988738;28;45465;-88
2023/06/21 16:17:36;;;;;;;;;1.67;1.67;;;;;;;;4989627;28;45364;-88
2023/06/21 16:20:02;;;;;;;;;1.00;1.00;;;;;;;;4987023;28;46217;-92
2023/06/21 16:22:27;;;;;;;;;1.50;1.00;;;;;;;;4986990;28;46591;-90
2023/06/21 16:24:52;;;;;;;;;5.67;1.00;;;;;;;;4983914;28;45381;-85
2023/06/21 16:27:18;;;;;;;;;2.75;1.25;;;;;;;;4992400;28;45490;-90
2023/06/21 16:29:43;;;;;;;;;1.50;1.00;;;;;;;;4989392;28;46755;-88
2023/06/21 16:32:09;;;;;;;;;1.00;1.00;;;;;;;;4990469;28;45475;-91
2023/06/21 16:34:37;;;;;;;;;0.00;0.00;;;;;;;;4993453;28;45356;-91
2023/06/21 16:37:03;;;;;;;;;1.75;1.75;;;;;;;;4990403;28;45384;-87
2023/06/21 16:39:30;;;;;;;;;1.25;1.25;;;;;;;;4990732;28;46916;-88
2023/06/21 16:41:55;;;;;;;;;5.00;2.75;;;;;;;;4991438;28;45715;-87
2023/06/21 16:44:21;;;;;;;;;1.00;1.00;;;;;;;;4993799;28;45490;-86
2023/06/21 16:46:46;;;;;;;;;2.00;2.00;;;;;;;;4990393;28;45463;-87
2023/06/21 16:49:11;;;;;;;;;1.67;0.67;;;;;;;;4985840;28;46281;-87
2023/06/21 16:51:36;;;;;;;;;1.00;0.67;;;;;;;;4992048;28;45408;-88
2023/06/21 16:54:02;;;;;;;;;4.67;3.67;;;;;;;;4990165;28;45528;-85
2023/06/21 16:56:27;;;;;;;;;1.00;1.00;;;;;;;;4989744;28;45455;-87
2023/06/21 16:58:53;;;;;;;;;2.00;1.00;;;;;;;;4985841;28;46305;-86
2023/06/21 17:01:21;;;;;;;;;4.00;2.25;;;;;;;;4986027;28;46066;-87
2023/06/21 17:03:47;;;;;;;;;3.00;1.75;;;;;;;;4990738;28;45553;-87
2023/06/21 17:06:12;;;;;;;;;0.33;0.33;;;;;;;;4990013;28;45445;-83
2023/06/21 17:08:40;;;;;;;;;0.67;0.00;;;;;;;;4988946;28;46196;-86
2023/06/21 17:11:05;;;;;;;;;2.00;0.50;;;;;;;;5006937;28;45848;-87
2023/06/21 17:13:30;;;;;;;;;0.00;0.00;;;;;;;;5012327;28;45447;-91
2023/06/21 17:15:58;;;;;;;;;1.00;1.00;;;;;;;;4995389;28;45855;-89
2023/06/21 17:18:23;;;;;;;;;2.50;1.00;;;;;;;;5012785;28;47030;-89
2023/06/21 17:20:48;;;;;;;;;1.00;1.00;;;;;;;;5010329;28;45382;-93
2023/06/21 17:23:13;;;;;;;;;1.33;1.00;;;;;;;;5011424;28;45500;-87
2023/06/21 17:25:39;;;;;;;;;1.67;1.00;;;;;;;;5007339;28;45618;-87
2023/06/21 17:28:04;;;;;;;;;1.33;0.00;;;;;;;;5010022;28;45690;-88
2023/06/21 17:30:29;;;;;;;;;2.00;1.00;;;;;;;;5007706;28;45485;-81
2023/06/21 17:32:54;;;;;;;;;3.00;0.33;;;;;;;;5010631;28;45396;-82
2023/06/21 17:35:20;;;;;;;;;3.00;0.00;;;;;;;;5013860;28;46592;-84
2023/06/21 17:37:45;;;;;;;;;0.00;0.00;;;;;;;;5009923;28;47080;-80
2023/06/21 17:40:10;;;;;;;;;0.75;0.75;;;;;;;;5012962;28;45428;-82